createdAt,value
2019-04-11T00:00:28.021Z,45.89
2019-04-11T00:01:53.685Z,45.91
2019-04-11T00:02:29.181Z,45.96
2019-04-11T00:03:27.830Z,45.95
2019-04-11T00:04:28.475Z,45.95
2019-04-11T00:05:28.888Z,45.95
2019-04-11T00:06:28.298Z,45.96
2019-04-11T00:07:28.270Z,45.98
2019-04-11T00:08:28.303Z,45.86
2019-04-11T00:09:27.833Z,45.97
2019-04-11T00:10:27.773Z,45.93
2019-04-11T00:11:28.408Z,45.94
2019-04-11T00:12:27.741Z,45.97
2019-04-11T00:13:36.731Z,45.98
2019-04-11T00:14:27.822Z,45.89
2019-04-11T00:15:29.077Z,45.94
2019-04-11T00:16:29.173Z,45.94
2019-04-11T00:17:28.371Z,45.97
2019-04-11T00:18:28.187Z,45.98
2019-04-11T00:19:27.992Z,45.98
2019-04-11T00:20:28.673Z,45.96
2019-04-11T00:21:29.100Z,45.93
2019-04-11T00:22:28.001Z,45.99
2019-04-11T00:23:28.266Z,45.94
2019-04-11T00:24:29.450Z,45.95
2019-04-11T00:25:27.743Z,46.03
2019-04-11T00:26:28.829Z,45.95
2019-04-11T00:27:29.067Z,45.99
2019-04-11T00:28:28.129Z,45.94
2019-04-11T00:29:28.452Z,45.95
2019-04-11T00:30:28.439Z,46
2019-04-11T00:31:28.751Z,45.98
2019-04-11T00:32:27.794Z,45.95
2019-04-11T00:33:27.763Z,45.94
2019-04-11T00:34:29.221Z,45.94
2019-04-11T00:35:28.167Z,45.97
2019-04-11T00:36:28.691Z,46.03
2019-04-11T00:37:27.800Z,45.88
2019-04-11T00:38:28.021Z,45.94
2019-04-11T00:39:28.149Z,46.02
2019-04-11T00:40:29.316Z,45.96
2019-04-11T00:41:28.428Z,45.96
2019-04-11T00:42:28.559Z,45.98
2019-04-11T00:43:47.204Z,45.92
2019-04-11T00:44:27.754Z,45.87
2019-04-11T00:45:27.845Z,45.94
2019-04-11T00:46:28.896Z,45.98
2019-04-11T00:47:27.750Z,45.97
2019-04-11T00:48:28.291Z,45.94
2019-04-11T00:49:27.825Z,45.96
2019-04-11T00:50:31.815Z,45.96
2019-04-11T00:51:27.889Z,45.94
2019-04-11T00:52:27.781Z,45.92
2019-04-11T00:53:28.193Z,45.89
2019-04-11T00:54:29.236Z,45.94
2019-04-11T00:55:27.837Z,45.92
2019-04-11T00:56:28.707Z,45.96
2019-04-11T00:57:28.840Z,45.96
2019-04-11T00:58:27.932Z,45.95
2019-04-11T00:59:27.963Z,45.97
2019-04-11T01:00:29.305Z,46.03
2019-04-11T01:01:28.350Z,45.91
2019-04-11T01:02:27.848Z,45.95
2019-04-11T01:03:28.683Z,45.98
2019-04-11T01:04:27.860Z,45.98
2019-04-11T01:05:27.880Z,45.97
2019-04-11T01:06:28.286Z,45.97
2019-04-11T01:07:27.746Z,45.95
2019-04-11T01:08:27.747Z,45.88
2019-04-11T01:09:28.715Z,45.94
2019-04-11T01:10:27.834Z,45.89
2019-04-11T01:11:28.112Z,45.89
2019-04-11T01:12:29.231Z,45.94
2019-04-11T01:14:28.164Z,45.91
2019-04-11T01:15:27.752Z,45.89
2019-04-11T01:16:28.672Z,45.86
2019-04-11T01:17:27.972Z,45.84
2019-04-11T01:18:28.081Z,45.88
2019-04-11T01:19:29.216Z,45.89
2019-04-11T01:20:27.845Z,45.86
2019-04-11T01:21:28.727Z,45.86
2019-04-11T01:22:27.669Z,45.88
2019-04-11T01:23:29.436Z,45.9
2019-04-11T01:24:28.421Z,45.84
2019-04-11T01:25:28.738Z,45.89
2019-04-11T01:26:29.928Z,45.91
2019-04-11T01:27:28.033Z,45.84
2019-04-11T01:28:29.054Z,45.89
2019-04-11T01:29:27.981Z,45.87
2019-04-11T01:30:29.063Z,45.87
2019-04-11T01:31:27.844Z,45.85
2019-04-11T01:32:28.670Z,45.91
2019-04-11T01:33:28.000Z,45.94
2019-04-11T01:34:28.993Z,45.86
2019-04-11T01:35:29.207Z,45.88
2019-04-11T01:36:27.682Z,45.98
2019-04-11T01:37:28.306Z,45.91
2019-04-11T01:38:28.616Z,45.9
2019-04-11T01:39:29.652Z,45.9
2019-04-11T01:40:27.840Z,45.91
2019-04-11T01:41:28.993Z,45.9
2019-04-11T01:42:27.752Z,45.9
2019-04-11T01:43:30.976Z,45.92
2019-04-11T01:44:28.673Z,45.87
2019-04-11T01:45:27.787Z,45.94
2019-04-11T01:46:27.829Z,45.89
2019-04-11T01:47:29.085Z,45.89
2019-04-11T01:48:28.192Z,45.86
2019-04-11T01:49:28.609Z,45.9
2019-04-11T01:50:27.872Z,45.87
2019-04-11T01:51:27.962Z,45.86
2019-04-11T01:52:28.832Z,45.9
2019-04-11T01:53:28.031Z,45.87
2019-04-11T01:54:28.433Z,45.82
2019-04-11T01:55:28.554Z,45.85
2019-04-11T01:56:27.724Z,45.85
2019-04-11T01:57:28.002Z,45.92
2019-04-11T01:58:29.088Z,45.94
2019-04-11T01:59:27.818Z,45.89
2019-04-11T02:00:28.262Z,45.92
2019-04-11T02:01:28.793Z,45.92
2019-04-11T02:02:28.890Z,45.92
2019-04-11T02:03:27.800Z,45.94
2019-04-11T02:04:28.206Z,45.89
2019-04-11T02:05:27.835Z,45.88
2019-04-11T02:06:28.225Z,45.86
2019-04-11T02:07:29.164Z,45.88
2019-04-11T02:08:27.877Z,45.87
2019-04-11T02:09:28.653Z,45.89
2019-04-11T02:10:28.954Z,45.83
2019-04-11T02:11:27.933Z,45.86
2019-04-11T02:12:28.720Z,45.9
2019-04-11T02:13:28.267Z,45.88
2019-04-11T02:14:28.272Z,45.91
2019-04-11T02:15:28.597Z,45.85
2019-04-11T02:16:27.879Z,45.88
2019-04-11T02:17:27.716Z,45.88
2019-04-11T02:18:27.882Z,45.83
2019-04-11T02:19:28.321Z,45.82
2019-04-11T02:20:27.753Z,45.89
2019-04-11T02:21:27.758Z,45.87
2019-04-11T02:22:28.828Z,45.86
2019-04-11T02:23:29.095Z,45.88
2019-04-11T02:24:28.272Z,45.88
2019-04-11T02:25:28.469Z,45.83
2019-04-11T02:26:27.974Z,45.84
2019-04-11T02:27:27.857Z,45.81
2019-04-11T02:28:29.093Z,45.85
2019-04-11T02:29:27.953Z,45.88
2019-04-11T02:30:31.559Z,45.85
2019-04-11T02:31:28.534Z,45.85
2019-04-11T02:32:29.732Z,45.87
2019-04-11T02:33:27.765Z,45.83
2019-04-11T02:34:31.766Z,45.83
2019-04-11T02:35:31.877Z,45.81
2019-04-11T02:36:38.764Z,45.86
2019-04-11T02:37:35.407Z,45.85
2019-04-11T02:38:41.392Z,45.87
2019-04-11T02:39:36.050Z,45.81
2019-04-11T02:40:33.176Z,45.83
2019-04-11T02:41:40.168Z,45.82
2019-04-11T02:42:28.070Z,45.79
2019-04-11T02:43:29.912Z,45.84
2019-04-11T02:47:53.245Z,45.8
2019-04-11T02:48:37.822Z,45.84
2019-04-11T02:49:28.235Z,45.8
2019-04-11T02:50:27.701Z,45.82
2019-04-11T02:51:31.493Z,45.77
2019-04-11T02:52:29.071Z,45.82
2019-04-11T02:53:34.757Z,45.82
2019-04-11T02:54:34.407Z,45.82
2019-04-11T02:55:33.806Z,45.88
2019-04-11T02:56:28.179Z,45.81
2019-04-11T02:57:27.788Z,45.78
2019-04-11T02:58:32.110Z,45.78
2019-04-11T02:59:30.935Z,45.8
2019-04-11T03:00:37.913Z,45.78
2019-04-11T03:01:28.764Z,45.77
2019-04-11T03:02:28.332Z,45.81
2019-04-11T03:03:34.388Z,45.79
2019-04-11T03:04:32.027Z,45.8
2019-04-11T03:05:40.041Z,45.77
2019-04-11T03:06:28.244Z,45.75
2019-04-11T03:07:27.791Z,45.79
2019-04-11T03:08:44.402Z,45.8
2019-04-11T03:09:32.092Z,45.8
2019-04-11T03:10:37.545Z,45.83
2019-04-11T03:11:35.165Z,45.83
2019-04-11T03:12:40.638Z,45.75
2019-04-11T03:13:29.941Z,45.79
2019-04-11T03:21:47.670Z,45.76
2019-04-11T03:22:27.706Z,45.72
2019-04-11T03:23:28.865Z,45.74
2019-04-11T03:24:36.284Z,45.74
2019-04-11T03:25:33.276Z,45.78
2019-04-11T03:26:31.326Z,45.77
2019-04-11T03:27:38.485Z,45.78
2019-04-11T03:28:53.996Z,45.76
2019-04-11T03:29:38.163Z,45.76
2019-04-11T03:50:43.109Z,45.58
2019-04-11T03:51:30.507Z,45.63
2019-04-11T03:52:32.293Z,45.63
2019-04-11T03:53:37.607Z,45.68
2019-04-11T03:54:42.640Z,45.7
2019-04-11T03:55:32.738Z,45.67
2019-04-11T03:56:29.439Z,45.65
2019-04-11T03:57:32.034Z,45.62
2019-04-11T03:58:33.887Z,45.6
2019-04-11T03:59:39.076Z,45.56
2019-04-11T04:00:49.597Z,45.5
2019-04-11T04:01:27.662Z,45.52
2019-04-11T04:02:28.589Z,45.48
2019-04-11T04:03:31.444Z,45.54
2019-04-11T04:04:29.515Z,45.49
2019-04-11T04:05:45.224Z,45.57
2019-04-11T04:06:33.716Z,45.48
2019-04-11T04:07:31.524Z,45.47
2019-04-11T04:08:31.825Z,45.49
2019-04-11T04:09:29.823Z,45.49
2019-04-11T04:10:29.764Z,45.48
2019-04-11T04:11:35.101Z,45.5
2019-04-11T04:12:40.236Z,45.52
2019-04-11T04:13:32.337Z,45.55
2019-04-11T04:14:29.342Z,45.55
2019-04-11T04:17:03.744Z,45.56
2019-04-11T04:17:28.423Z,45.55
2019-04-11T04:18:36.668Z,45.56
2019-04-11T04:19:35.986Z,45.55
2019-04-11T04:20:29.882Z,45.59
2019-04-11T04:21:35.503Z,45.57
2019-04-11T04:22:32.433Z,45.56
2019-04-11T04:23:38.283Z,45.52
2019-04-11T04:24:49.197Z,45.5
2019-04-11T04:25:29.280Z,45.54
2019-04-11T04:26:35.751Z,45.49
2019-04-11T04:27:35.573Z,45.57
2019-04-11T04:28:41.068Z,45.57
2019-04-11T04:29:36.547Z,45.55
2019-04-11T04:30:30.309Z,45.59
2019-04-11T04:31:30.829Z,45.64
2019-04-11T04:32:33.235Z,45.59
2019-04-11T04:33:40.633Z,45.57
2019-04-11T04:34:28.818Z,45.56
2019-04-11T04:35:29.099Z,45.54
2019-04-11T04:36:35.011Z,45.56
2019-04-11T04:37:35.049Z,45.51
2019-04-11T04:38:41.507Z,45.54
2019-04-11T04:39:31.646Z,45.51
2019-04-11T04:43:02.593Z,45.53
2019-04-11T04:43:36.737Z,45.53
2019-04-11T04:44:33.594Z,45.53
2019-04-11T04:48:35.445Z,45.53
2019-04-11T04:49:40.814Z,45.47
2019-04-11T04:50:31.352Z,45.49
2019-04-11T04:51:32.084Z,45.46
2019-04-11T04:52:38.537Z,45.44
2019-04-11T04:53:36.220Z,45.45
2019-04-11T04:54:38.680Z,45.44
2019-04-11T04:55:30.742Z,45.4
2019-04-11T04:56:45.019Z,45.43
2019-04-11T04:57:38.094Z,45.42
2019-04-11T04:58:32.269Z,45.37
2019-04-11T04:59:34.211Z,45.44
2019-04-11T05:00:32.395Z,45.47
2019-04-11T05:01:31.925Z,45.42
2019-04-11T05:02:37.622Z,45.4
2019-04-11T05:03:29.737Z,45.41
2019-04-11T05:04:33.971Z,45.4
2019-04-11T05:05:31.371Z,45.36
2019-04-11T05:06:29.093Z,45.39
2019-04-11T05:07:47.575Z,45.37
2019-04-11T05:08:27.967Z,45.33
2019-04-11T05:09:28.016Z,45.3
2019-04-11T05:10:30.824Z,45.33
2019-04-11T05:11:30.691Z,45.32
2019-04-11T05:12:28.431Z,45.37
2019-04-11T05:13:34.038Z,45.33
2019-04-11T05:14:31.979Z,45.3
2019-04-11T05:15:28.569Z,45.32
2019-04-11T05:16:27.651Z,45.27
2019-04-11T05:17:29.374Z,45.23
2019-04-11T05:18:28.151Z,45.25
2019-04-11T05:19:30.269Z,45.21
2019-04-11T05:20:28.378Z,45.2
2019-04-11T05:21:27.876Z,45.22
2019-04-11T05:22:27.894Z,45.22
2019-04-11T05:23:27.889Z,45.23
2019-04-11T05:24:28.616Z,45.19
2019-04-11T05:25:28.821Z,45.2
2019-04-11T05:26:28.117Z,45.19
2019-04-11T05:27:27.543Z,45.22
2019-04-11T05:28:27.922Z,45.16
2019-04-11T05:29:27.747Z,45.19
2019-04-11T05:30:27.676Z,45.19
2019-04-11T05:31:27.612Z,45.14
2019-04-11T05:32:29.366Z,45.13
2019-04-11T05:33:27.625Z,45.19
2019-04-11T05:34:28.280Z,45.2
2019-04-11T05:35:27.791Z,45.17
2019-04-11T05:36:28.593Z,45.15
2019-04-11T05:37:27.692Z,45.16
2019-04-11T05:38:27.720Z,45.17
2019-04-11T05:39:27.901Z,45.17
2019-04-11T05:40:28.412Z,45.15
2019-04-11T05:41:27.774Z,45.16
2019-04-11T05:42:27.746Z,45.15
2019-04-11T05:43:42.238Z,45.14
2019-04-11T05:44:28.741Z,45.14
2019-04-11T05:45:27.694Z,45.15
2019-04-11T05:47:27.956Z,45.14
2019-04-11T05:48:28.895Z,45.12
2019-04-11T05:49:46.584Z,45.07
2019-04-11T05:50:28.713Z,45.12
2019-04-11T05:51:47.793Z,45.14
2019-04-11T05:52:36.830Z,45.11
2019-04-11T05:53:28.214Z,45.07
2019-04-11T05:54:28.418Z,45.14
2019-04-11T05:55:28.326Z,45.11
2019-04-11T05:56:28.109Z,45.06
2019-04-11T05:57:43.191Z,45.11
2019-04-11T05:58:28.445Z,45.08
2019-04-11T05:59:27.781Z,45.07
2019-04-11T06:00:28.657Z,45.04
2019-04-11T06:01:30.947Z,45.08
2019-04-11T06:02:29.279Z,45.08
2019-04-11T06:03:28.609Z,45.04
2019-04-11T06:04:30.555Z,45.03
2019-04-11T06:05:40.989Z,45.07
2019-04-11T06:06:41.900Z,45.08
2019-04-11T06:07:27.582Z,45.03
2019-04-11T06:08:32.562Z,45.07
2019-04-11T06:09:41.952Z,45.04
2019-04-11T06:10:28.549Z,45.08
2019-04-11T06:11:28.748Z,45.05
2019-04-11T06:12:27.824Z,45.02
2019-04-11T06:13:28.999Z,45.09
2019-04-11T06:14:27.745Z,45.03
2019-04-11T06:15:27.789Z,45.09
2019-04-11T06:17:27.755Z,44.99
2019-04-11T06:18:46.050Z,45.03
2019-04-11T06:19:28.498Z,44.98
2019-04-11T06:20:29.384Z,45
2019-04-11T06:21:28.608Z,45
2019-04-11T06:22:27.706Z,45
2019-04-11T06:23:27.775Z,45.02
2019-04-11T06:24:28.230Z,45
2019-04-11T06:25:47.188Z,45
2019-04-11T06:26:28.699Z,45.01
2019-04-11T06:27:28.928Z,44.97
2019-04-11T06:28:29.081Z,45
2019-04-11T06:29:31.744Z,44.99
2019-04-11T06:30:28.674Z,44.98
2019-04-11T06:31:27.607Z,44.93
2019-04-11T06:32:28.175Z,44.93
2019-04-11T06:33:29.117Z,44.95
2019-04-11T06:34:27.732Z,44.96
2019-04-11T06:35:28.493Z,44.97
2019-04-11T06:36:30.355Z,44.94
2019-04-11T06:37:27.928Z,44.92
2019-04-11T06:38:27.777Z,44.95
2019-04-11T06:39:27.872Z,44.95
2019-04-11T06:40:29.419Z,44.92
2019-04-11T06:41:27.703Z,44.92
2019-04-11T06:42:32.079Z,44.9
2019-04-11T06:43:28.059Z,44.87
2019-04-11T06:44:28.418Z,44.92
2019-04-11T06:45:27.633Z,44.91
2019-04-11T06:46:27.676Z,44.87
2019-04-11T06:47:27.652Z,44.91
2019-04-11T06:48:27.740Z,44.86
2019-04-11T06:49:29.120Z,44.87
2019-04-11T06:50:27.717Z,44.9
2019-04-11T06:51:28.426Z,44.87
2019-04-11T06:52:29.048Z,44.88
2019-04-11T06:53:28.335Z,44.85
2019-04-11T06:54:28.932Z,44.86
2019-04-11T06:55:29.174Z,44.85
2019-04-11T06:56:27.799Z,44.85
2019-04-11T06:57:28.043Z,44.83
2019-04-11T06:58:27.859Z,44.85
2019-04-11T06:59:28.377Z,44.86
2019-04-11T07:00:27.908Z,44.82
2019-04-11T07:01:28.304Z,44.85
2019-04-11T07:02:28.344Z,44.83
2019-04-11T07:03:34.029Z,44.79
2019-04-11T07:04:27.649Z,44.84
2019-04-11T07:05:29.335Z,44.84
2019-04-11T07:06:27.623Z,44.84
2019-04-11T07:07:37.991Z,44.77
2019-04-11T07:08:27.753Z,44.83
2019-04-11T07:09:28.989Z,44.79
2019-04-11T07:10:28.977Z,44.79
2019-04-11T07:11:27.841Z,44.81
2019-04-11T07:12:28.905Z,44.77
2019-04-11T07:13:28.681Z,44.77
2019-04-11T07:14:28.822Z,44.76
2019-04-11T07:15:27.789Z,44.75
2019-04-11T07:16:27.880Z,44.77
2019-04-11T07:17:27.784Z,44.74
2019-04-11T07:18:29.426Z,44.7
2019-04-11T07:19:28.925Z,44.72
2019-04-11T07:20:27.591Z,44.73
2019-04-11T07:21:27.912Z,44.74
2019-04-11T07:22:27.589Z,44.87
2019-04-11T07:23:28.787Z,44.88
2019-04-11T07:24:28.377Z,44.94
2019-04-11T07:25:29.127Z,44.51
2019-04-11T07:26:27.716Z,43.87
2019-04-11T07:27:28.161Z,43.43
2019-04-11T07:28:27.811Z,43.15
2019-04-11T07:29:27.858Z,43.99
2019-04-11T07:30:29.104Z,43.39
2019-04-11T07:31:28.044Z,43.19
2019-04-11T07:32:28.230Z,42.97
2019-04-11T07:33:29.244Z,43.45
2019-04-11T07:34:40.340Z,41.93
2019-04-11T07:35:29.647Z,42.45
2019-04-11T07:36:27.635Z,42.25
2019-04-11T07:37:28.480Z,42.79
2019-04-11T07:38:27.625Z,42.3
2019-04-11T07:39:29.153Z,42.15
2019-04-11T07:40:35.503Z,42.42
2019-04-11T07:41:27.660Z,42.06
2019-04-11T07:42:28.205Z,42.75
2019-04-11T07:43:29.507Z,42.8
2019-04-11T07:44:32.563Z,43.18
2019-04-11T07:45:27.889Z,43.78
2019-04-11T07:46:29.198Z,44.09
2019-04-11T07:47:29.714Z,44.06
2019-04-11T07:48:27.693Z,44.22
2019-04-11T07:49:28.837Z,44.37
2019-04-11T07:50:27.918Z,44.34
2019-04-11T07:51:27.866Z,44.37
2019-04-11T07:52:36.062Z,43.98
2019-04-11T07:53:28.860Z,44.07
2019-04-11T07:54:28.372Z,44.11
2019-04-11T07:55:28.176Z,44.17
2019-04-11T07:56:27.566Z,44.14
2019-04-11T07:57:28.715Z,44.18
2019-04-11T07:58:28.810Z,44.19
2019-04-11T07:59:27.679Z,44.18
2019-04-11T08:00:56.013Z,44.18
2019-04-11T08:01:27.605Z,44.21
2019-04-11T08:02:29.073Z,44.17
2019-04-11T08:03:28.023Z,44.2
2019-04-11T08:04:28.025Z,44.23
2019-04-11T08:05:28.671Z,44.24
2019-04-11T08:06:29.046Z,44.26
2019-04-11T08:07:28.437Z,44.23
2019-04-11T08:08:28.038Z,44.23
2019-04-11T08:09:29.234Z,44.26
2019-04-11T08:10:27.690Z,44.26
2019-04-11T08:11:27.762Z,44.24
2019-04-11T08:12:27.926Z,44.28
2019-04-11T08:13:28.633Z,44.3
2019-04-11T08:14:28.916Z,44.26
2019-04-11T08:15:27.518Z,44.42
2019-04-11T08:16:29.088Z,44.56
2019-04-11T08:17:46.119Z,44.55
2019-04-11T08:18:28.738Z,44.65
2019-04-11T08:19:28.962Z,44.75
2019-04-11T08:20:27.642Z,44.81
2019-04-11T08:21:28.543Z,44.83
2019-04-11T08:22:27.546Z,44.82
2019-04-11T08:23:28.064Z,44.82
2019-04-11T08:24:30.323Z,45
2019-04-11T08:25:27.716Z,44.94
2019-04-11T08:26:28.691Z,45.04
2019-04-11T08:27:27.898Z,45.02
2019-04-11T08:28:29.258Z,44.95
2019-04-11T08:29:28.841Z,45.08
2019-04-11T08:30:27.818Z,45.02
2019-04-11T08:31:29.137Z,44.98
2019-04-11T08:32:27.827Z,45.02
2019-04-11T08:33:29.064Z,44.95
2019-04-11T08:34:27.566Z,45.05
2019-04-11T08:35:28.669Z,45.07
2019-04-11T08:36:27.559Z,44.98
2019-04-11T08:37:27.824Z,45.16
2019-04-11T08:38:29.196Z,45
2019-04-11T08:39:27.698Z,45.06
2019-04-11T08:40:28.401Z,44.94
2019-04-11T08:41:27.768Z,45.01
2019-04-11T08:42:27.724Z,45
2019-04-11T08:43:29.227Z,45
2019-04-11T08:44:28.356Z,45.13
2019-04-11T08:45:27.878Z,45.06
2019-04-11T08:46:29.168Z,45.06
2019-04-11T08:48:29.095Z,45.13
2019-04-11T08:49:35.362Z,45.21
2019-04-11T08:50:28.544Z,45.12
2019-04-11T08:51:27.738Z,45.19
2019-04-11T08:52:28.150Z,45.27
2019-04-11T08:53:29.030Z,45.21
2019-04-11T08:54:27.564Z,45.51
2019-04-11T08:55:27.578Z,45.34
2019-04-11T08:56:29.815Z,45.64
2019-04-11T08:57:27.731Z,45.11
2019-04-11T08:58:29.030Z,45.11
2019-04-11T08:59:27.762Z,44.92
2019-04-11T09:00:28.527Z,44.93
2019-04-11T09:01:28.013Z,44.9
2019-04-11T09:02:28.780Z,44.86
2019-04-11T09:03:27.811Z,44.86
2019-04-11T09:04:28.031Z,44.88
2019-04-11T09:05:29.254Z,44.9
2019-04-11T09:06:28.685Z,44.86
2019-04-11T09:07:27.856Z,44.88
2019-04-11T09:08:27.663Z,44.81
2019-04-11T09:09:29.735Z,44.83
2019-04-11T09:10:28.521Z,44.8
2019-04-11T09:11:29.008Z,44.81
2019-04-11T09:12:28.894Z,44.75
2019-04-11T09:13:27.571Z,44.8
2019-04-11T09:14:28.758Z,44.77
2019-04-11T09:15:28.936Z,44.76
2019-04-11T09:16:28.021Z,44.76
2019-04-11T09:17:28.455Z,44.81
2019-04-11T09:18:28.364Z,44.76
2019-04-11T09:19:27.758Z,44.75
2019-04-11T09:20:27.940Z,44.69
2019-04-11T09:21:28.827Z,44.72
2019-04-11T09:22:29.389Z,44.74
2019-04-11T09:23:28.199Z,44.73
2019-04-11T09:24:27.657Z,44.61
2019-04-11T09:25:32.040Z,44.68
2019-04-11T09:26:27.989Z,44.7
2019-04-11T09:27:29.125Z,44.68
2019-04-11T09:28:27.472Z,44.72
2019-04-11T09:29:28.620Z,44.68
2019-04-11T09:30:28.838Z,44.64
2019-04-11T09:31:29.839Z,44.59
2019-04-11T09:32:28.850Z,44.59
2019-04-11T09:33:27.512Z,44.63
2019-04-11T09:34:28.358Z,44.62
2019-04-11T09:35:27.681Z,44.61
2019-04-11T09:36:30.803Z,44.63
2019-04-11T09:37:27.758Z,44.64
2019-04-11T09:38:28.812Z,44.58
2019-04-11T09:39:29.150Z,44.61
2019-04-11T09:40:28.317Z,44.58
2019-04-11T09:41:28.415Z,44.59
2019-04-11T09:42:28.637Z,44.63
2019-04-11T09:43:28.525Z,44.6
2019-04-11T09:44:29.063Z,44.58
2019-04-11T09:45:28.034Z,44.69
2019-04-11T09:46:27.448Z,44.57
2019-04-11T09:47:28.558Z,44.37
2019-04-11T09:48:27.598Z,44.32
2019-04-11T09:49:27.529Z,44.16
2019-04-11T09:50:28.889Z,44.04
2019-04-11T09:51:29.892Z,43.98
2019-04-11T09:52:27.568Z,43.85
2019-04-11T09:53:28.511Z,43.7
2019-04-11T09:54:28.502Z,43.69
2019-04-11T09:55:27.568Z,43.65
2019-04-11T09:56:27.651Z,43.37
2019-04-11T09:57:29.177Z,43.41
2019-04-11T09:58:27.842Z,43.44
2019-04-11T09:59:27.723Z,43.51
2019-04-11T10:00:30.765Z,43.48
2019-04-11T10:01:28.978Z,43.69
2019-04-11T10:02:27.774Z,43.28
2019-04-11T10:03:28.182Z,43.35
2019-04-11T10:04:27.985Z,43.48
2019-04-11T10:05:27.786Z,43.66
2019-04-11T10:06:28.372Z,43.76
2019-04-11T10:07:28.481Z,43.84
2019-04-11T10:08:27.768Z,43.86
2019-04-11T10:09:28.589Z,43.9
2019-04-11T10:10:29.185Z,43.91
2019-04-11T10:11:28.534Z,43.92
2019-04-11T10:12:27.912Z,43.97
2019-04-11T10:13:28.934Z,43.91
2019-04-11T10:14:27.600Z,43.91
2019-04-11T10:15:29.816Z,44.03
2019-04-11T10:16:28.689Z,44.15
2019-04-11T10:17:27.681Z,44.12
2019-04-11T10:18:44.439Z,44.2
2019-04-11T10:19:28.083Z,44.16
2019-04-11T10:20:29.030Z,44.12
2019-04-11T10:21:29.295Z,44.18
2019-04-11T10:22:29.369Z,44.2
2019-04-11T10:23:29.440Z,43.95
2019-04-11T10:24:27.642Z,44.01
2019-04-11T10:25:32.390Z,44.08
2019-04-11T10:26:28.036Z,44.08
2019-04-11T10:27:28.924Z,44.09
2019-04-11T10:28:27.720Z,44.09
2019-04-11T10:29:34.852Z,44.13
2019-04-11T10:30:27.688Z,44.13
2019-04-11T10:31:28.686Z,44.17
2019-04-11T10:32:27.774Z,44.16
2019-04-11T10:33:29.067Z,44.12
2019-04-11T10:34:28.189Z,44.12
2019-04-11T10:35:27.638Z,44.14
2019-04-11T10:36:27.776Z,44.13
2019-04-11T10:37:28.846Z,44.12
2019-04-11T10:38:28.941Z,44.17
2019-04-11T10:39:29.371Z,44.08
2019-04-11T10:40:28.438Z,44.11
2019-04-11T10:41:28.876Z,44.12
2019-04-11T10:42:28.968Z,44.06
2019-04-11T10:43:28.890Z,44.06
2019-04-11T10:44:27.792Z,44.11
2019-04-11T10:45:28.624Z,43.99
2019-04-11T10:46:27.453Z,44.02
2019-04-11T10:47:27.694Z,44.08
2019-04-11T10:48:50.478Z,44.06
2019-04-11T10:49:28.705Z,44.08
2019-04-11T10:50:28.698Z,44.04
2019-04-11T10:51:27.696Z,44.04
2019-04-11T10:52:29.041Z,43.91
2019-04-11T10:53:27.990Z,44
2019-04-11T10:54:32.664Z,44.03
2019-04-11T10:55:27.626Z,44.08
2019-04-11T10:56:28.639Z,44.03
2019-04-11T10:57:28.059Z,44.02
2019-04-11T10:58:29.539Z,44.07
2019-04-11T10:59:28.296Z,44.03
2019-04-11T11:00:27.674Z,44.01
2019-04-11T11:01:28.586Z,44.02
2019-04-11T11:02:27.621Z,44.06
2019-04-11T11:03:30.746Z,44.1
2019-04-11T11:04:27.997Z,44
2019-04-11T11:05:28.609Z,44.01
2019-04-11T11:06:27.685Z,43.96
2019-04-11T11:07:28.913Z,44.04
2019-04-11T11:08:27.602Z,44.07
2019-04-11T11:09:28.643Z,44.02
2019-04-11T11:10:28.039Z,44.12
2019-04-11T11:11:28.671Z,44.07
2019-04-11T11:12:27.647Z,44.08
2019-04-11T11:13:27.948Z,44.07
2019-04-11T11:14:29.208Z,44.04
2019-04-11T11:15:27.765Z,44.02
2019-04-11T11:16:47.099Z,44.04
2019-04-11T11:21:38.576Z,44.05
2019-04-11T11:22:27.595Z,44.1
2019-04-11T11:23:28.893Z,44.07
2019-04-11T11:24:28.579Z,44.05
2019-04-11T11:25:27.887Z,44.08
2019-04-11T11:26:29.672Z,44.02
2019-04-11T11:27:27.481Z,44.09
2019-04-11T11:28:27.672Z,44.01
2019-04-11T11:29:29.181Z,44.09
2019-04-11T11:30:27.672Z,44.07
2019-04-11T11:31:28.279Z,44.07
2019-04-11T11:32:27.609Z,43.98
2019-04-11T11:33:27.595Z,44.08
2019-04-11T11:34:28.724Z,44.09
2019-04-11T11:35:43.765Z,44.1
2019-04-11T11:36:39.789Z,44.05
2019-04-11T11:37:27.635Z,44.11
2019-04-11T11:38:28.451Z,44.28
2019-04-11T11:39:28.042Z,44.41
2019-04-11T11:40:28.270Z,44.58
2019-04-11T11:41:28.361Z,44.66
2019-04-11T11:42:28.462Z,44.85
2019-04-11T11:43:27.779Z,44.58
2019-04-11T11:44:28.884Z,44.13
2019-04-11T11:45:27.982Z,43.82
2019-04-11T11:46:32.355Z,43.64
2019-04-11T11:47:43.300Z,43.4
2019-04-11T11:48:28.914Z,43.11
2019-04-11T11:50:37.745Z,43.01
2019-04-11T11:51:31.482Z,42.79
2019-04-11T11:52:37.761Z,42.76
2019-04-11T11:53:31.568Z,42.9
2019-04-11T11:54:27.612Z,42.44
2019-04-11T11:55:27.600Z,42.36
2019-04-11T11:56:27.682Z,42.76
2019-04-11T11:57:29.101Z,42.7
2019-04-11T11:58:28.166Z,42.36
2019-04-11T11:59:32.356Z,42.79
2019-04-11T12:00:27.428Z,42.46
2019-04-11T12:01:27.683Z,42.41
2019-04-11T12:02:28.808Z,42.52
2019-04-11T12:03:31.468Z,42.73
2019-04-11T12:04:40.204Z,42.37
2019-04-11T12:05:29.768Z,42.48
2019-04-11T12:06:27.480Z,42.36
2019-04-11T12:07:39.487Z,42.2
2019-04-11T12:08:28.904Z,42.57
2019-04-11T12:09:28.971Z,42.64
2019-04-11T12:10:28.375Z,42.24
2019-04-11T12:11:28.593Z,41.95
2019-04-11T12:12:27.712Z,42.24
2019-04-11T12:13:28.593Z,42.24
2019-04-11T12:14:27.820Z,42.36
2019-04-11T12:15:30.536Z,42.18
2019-04-11T12:16:28.212Z,42.17
2019-04-11T12:17:38.079Z,41.69
2019-04-11T12:18:28.924Z,42.02
2019-04-11T12:20:27.571Z,41.92
2019-04-11T12:21:32.446Z,41.75
2019-04-11T12:22:29.188Z,42.58
2019-04-11T12:23:27.807Z,42.01
2019-04-11T12:24:28.150Z,41.82
2019-04-11T12:25:27.642Z,41.97
2019-04-11T12:26:34.204Z,41.7
2019-04-11T12:27:31.224Z,41.99
2019-04-11T12:28:28.001Z,42.11
2019-04-11T12:29:30.838Z,41.7
2019-04-11T12:30:37.634Z,41.47
2019-04-11T12:31:37.599Z,42.01
2019-04-11T12:32:28.717Z,41.85
2019-04-11T12:33:28.016Z,41.61
2019-04-11T12:34:27.714Z,41.8
2019-04-11T12:35:30.791Z,41.55
2019-04-11T12:36:28.748Z,41.77
2019-04-11T12:37:27.755Z,41.78
2019-04-11T12:38:27.637Z,41.86
2019-04-11T12:39:29.209Z,41.82
2019-04-11T12:40:27.456Z,41.71
2019-04-11T12:41:27.519Z,42.07
2019-04-11T12:42:27.590Z,41.7
2019-04-11T12:43:27.440Z,42.27
2019-04-11T12:44:30.731Z,42.24
2019-04-11T12:45:27.605Z,42.53
2019-04-11T12:46:30.462Z,42.28
2019-04-11T12:47:28.627Z,42.13
2019-04-11T12:48:27.505Z,42.37
2019-04-11T12:49:27.526Z,42.53
2019-04-11T12:50:27.572Z,42.62
2019-04-11T12:51:27.573Z,42.8
2019-04-11T12:52:27.671Z,43.13
2019-04-11T12:53:27.765Z,42.97
2019-04-11T12:54:27.669Z,42.78
2019-04-11T12:55:27.643Z,43.33
2019-04-11T12:56:27.509Z,42.95
2019-04-11T12:57:27.439Z,43.02
2019-04-11T12:58:27.522Z,43.44
2019-04-11T12:59:27.614Z,43.15
2019-04-11T13:00:27.572Z,42.85
2019-04-11T13:01:27.486Z,42.76
2019-04-11T13:02:27.557Z,42.83
2019-04-11T13:03:27.557Z,43
2019-04-11T13:04:27.602Z,43.16
2019-04-11T13:05:27.578Z,43.14
2019-04-11T13:06:36.052Z,43.33
2019-04-11T13:07:27.603Z,43.46
2019-04-11T13:08:27.629Z,43.37
2019-04-11T13:09:27.869Z,43.18
2019-04-11T13:10:27.564Z,43.44
2019-04-11T13:11:27.768Z,43.36
2019-04-11T13:12:27.737Z,43.46
2019-04-11T13:13:27.762Z,43.42
2019-04-11T13:14:28.569Z,43.5
2019-04-11T13:15:27.974Z,43.67
2019-04-11T13:16:27.387Z,43.33
2019-04-11T13:17:27.595Z,43.55
2019-04-11T13:18:27.525Z,43.58
2019-04-11T13:19:27.505Z,43.45
2019-04-11T13:20:27.474Z,43.43
2019-04-11T13:21:27.471Z,43.44
2019-04-11T13:22:27.580Z,43.48
2019-04-11T13:23:27.666Z,43.54
2019-04-11T13:24:27.549Z,43.51
2019-04-11T13:25:27.567Z,43.63
2019-04-11T13:26:27.569Z,43.56
2019-04-11T13:27:27.551Z,43.36
2019-04-11T13:28:27.557Z,43.35
2019-04-11T13:29:27.737Z,43.65
2019-04-11T13:30:27.645Z,43.44
2019-04-11T13:31:28.639Z,43.71
2019-04-11T13:32:27.606Z,43.67
2019-04-11T13:33:27.694Z,43.72
2019-04-11T13:34:27.392Z,43.71
2019-04-11T13:35:27.696Z,43.92
2019-04-11T13:36:27.534Z,43.76
2019-04-11T13:37:27.453Z,43.79
2019-04-11T13:38:27.507Z,44
2019-04-11T13:39:27.518Z,43.9
2019-04-11T13:40:27.462Z,43.87
2019-04-11T13:41:27.560Z,43.72
2019-04-11T13:42:27.566Z,43.97